sensor_id;sensor_type;location;lat;lon;timestamp;pressure;altitude;pressure_sealevel;temperature;humidity
53715;BME280;39608;55.630;37.864;2023-04-28T00:01:03;98956.88;;;14.66;51.26
53715;BME280;39608;55.630;37.864;2023-04-28T00:06:06;98957.88;;;14.61;51.70
53715;BME280;39608;55.630;37.864;2023-04-28T00:11:09;98943.84;;;14.50;51.66
53715;BME280;39608;55.630;37.864;2023-04-28T00:16:12;98942.84;;;14.55;51.60
53715;BME280;39608;55.630;37.864;2023-04-28T00:21:14;98949.88;;;14.56;51.76
53715;BME280;39608;55.630;37.864;2023-04-28T00:26:18;98943.72;;;14.47;51.96
53715;BME280;39608;55.630;37.864;2023-04-28T00:31:20;98943.72;;;14.47;52.00
53715;BME280;39608;55.630;37.864;2023-04-28T00:36:22;98948.41;;;14.59;52.09
53715;BME280;39608;55.630;37.864;2023-04-28T00:41:26;98945.25;;;14.57;52.15
53715;BME280;39608;55.630;37.864;2023-04-28T00:46:29;98944.41;;;14.77;51.70
53715;BME280;39608;55.630;37.864;2023-04-28T00:51:32;98947.53;;;14.88;51.30
53715;BME280;39608;55.630;37.864;2023-04-28T00:56:36;98943.25;;;14.66;51.63
53715;BME280;39608;55.630;37.864;2023-04-28T01:01:38;98941.44;;;14.49;51.94
53715;BME280;39608;55.630;37.864;2023-04-28T01:06:40;98938.81;;;14.40;51.81
53715;BME280;39608;55.630;37.864;2023-04-28T01:11:44;98933.88;;;14.33;51.87
53715;BME280;39608;55.630;37.864;2023-04-28T01:16:46;98920.25;;;14.12;52.19
53715;BME280;39608;55.630;37.864;2023-04-28T01:21:49;98951.03;;;14.13;52.17
53715;BME280;39608;55.630;37.864;2023-04-28T01:26:52;98957.03;;;14.06;52.56
53715;BME280;39608;55.630;37.864;2023-04-28T01:31:54;98960.97;;;13.96;52.94
53715;BME280;39608;55.630;37.864;2023-04-28T01:36:56;98957.22;;;13.80;53.91
53715;BME280;39608;55.630;37.864;2023-04-28T01:42:00;98942.41;;;13.90;52.79
53715;BME280;39608;55.630;37.864;2023-04-28T01:47:03;98961.84;;;13.79;53.51
53715;BME280;39608;55.630;37.864;2023-04-28T01:52:05;98959.94;;;13.80;53.67
53715;BME280;39608;55.630;37.864;2023-04-28T01:57:08;98943.59;;;13.80;53.82
53715;BME280;39608;55.630;37.864;2023-04-28T02:02:11;98939.53;;;13.86;53.42
53715;BME280;39608;55.630;37.864;2023-04-28T02:07:13;98937.97;;;13.76;54.48
53715;BME280;39608;55.630;37.864;2023-04-28T02:12:16;98940.78;;;13.89;53.67
53715;BME280;39608;55.630;37.864;2023-04-28T02:17:18;98935.06;;;13.81;53.92
53715;BME280;39608;55.630;37.864;2023-04-28T02:22:20;98956.03;;;13.90;53.85
53715;BME280;39608;55.630;37.864;2023-04-28T02:27:24;98960.06;;;13.83;54.12
53715;BME280;39608;55.630;37.864;2023-04-28T02:32:26;98955.41;;;13.84;54.33
53715;BME280;39608;55.630;37.864;2023-04-28T02:37:28;98945.50;;;13.79;54.05
53715;BME280;39608;55.630;37.864;2023-04-28T02:42:31;98962.00;;;13.83;54.39
53715;BME280;39608;55.630;37.864;2023-04-28T02:47:33;98961.38;;;13.77;54.50
53715;BME280;39608;55.630;37.864;2023-04-28T02:52:36;98960.91;;;13.75;55.00
53715;BME280;39608;55.630;37.864;2023-04-28T02:57:39;98960.53;;;13.85;54.32
53715;BME280;39608;55.630;37.864;2023-04-28T03:02:41;98964.28;;;14.02;54.35
53715;BME280;39608;55.630;37.864;2023-04-28T03:07:43;98964.63;;;14.00;54.57
53715;BME280;39608;55.630;37.864;2023-04-28T03:12:47;98956.56;;;14.04;54.43
53715;BME280;39608;55.630;37.864;2023-04-28T03:17:49;98982.72;;;14.05;54.39
53715;BME280;39608;55.630;37.864;2023-04-28T03:22:51;98985.16;;;13.98;54.56
53715;BME280;39608;55.630;37.864;2023-04-28T03:27:54;98990.47;;;13.94;54.86
53715;BME280;39608;55.630;37.864;2023-04-28T03:32:56;98992.53;;;13.97;54.82
53715;BME280;39608;55.630;37.864;2023-04-28T03:37:58;98988.53;;;13.95;54.75
53715;BME280;39608;55.630;37.864;2023-04-28T03:43:02;98989.47;;;13.99;54.86
53715;BME280;39608;55.630;37.864;2023-04-28T03:48:04;98990.69;;;14.10;54.85
53715;BME280;39608;55.630;37.864;2023-04-28T03:53:06;98994.56;;;14.30;54.55
53715;BME280;39608;55.630;37.864;2023-04-28T03:58:10;98998.88;;;14.31;54.81
53715;BME280;39608;55.630;37.864;2023-04-28T04:03:12;98992.63;;;14.31;55.06
53715;BME280;39608;55.630;37.864;2023-04-28T04:08:14;99000.81;;;14.52;54.48
53715;BME280;39608;55.630;37.864;2023-04-28T04:13:17;99002.75;;;14.51;54.83
53715;BME280;39608;55.630;37.864;2023-04-28T04:18:19;98995.22;;;14.69;54.84
53715;BME280;39608;55.630;37.864;2023-04-28T04:23:22;99000.09;;;14.64;54.95
53715;BME280;39608;55.630;37.864;2023-04-28T04:28:25;99013.56;;;14.69;55.15
53715;BME280;39608;55.630;37.864;2023-04-28T04:33:28;98982.91;;;14.63;55.18
53715;BME280;39608;55.630;37.864;2023-04-28T04:38:30;99013.53;;;14.90;55.28
53715;BME280;39608;55.630;37.864;2023-04-28T04:43:33;99023.00;;;15.05;55.20
53715;BME280;39608;55.630;37.864;2023-04-28T04:48:36;99036.69;;;15.17;55.05
53715;BME280;39608;55.630;37.864;2023-04-28T04:53:38;99036.81;;;15.21;55.27
53715;BME280;39608;55.630;37.864;2023-04-28T04:58:42;99035.00;;;15.37;54.59
53715;BME280;39608;55.630;37.864;2023-04-28T05:03:45;99035.59;;;15.31;54.74
53715;BME280;39608;55.630;37.864;2023-04-28T05:08:47;99036.25;;;15.15;55.09
53715;BME280;39608;55.630;37.864;2023-04-28T05:13:50;99043.56;;;15.23;54.93
53715;BME280;39608;55.630;37.864;2023-04-28T05:18:52;99029.28;;;15.18;55.46
53715;BME280;39608;55.630;37.864;2023-04-28T05:23:54;99032.00;;;15.18;55.78
53715;BME280;39608;55.630;37.864;2023-04-28T05:28:58;99046.38;;;15.27;55.66
53715;BME280;39608;55.630;37.864;2023-04-28T05:34:00;99045.88;;;15.46;54.97
53715;BME280;39608;55.630;37.864;2023-04-28T05:39:14;99051.91;;;15.52;54.96
53715;BME280;39608;55.630;37.864;2023-04-28T05:44:19;99001.84;;;15.14;55.17
53715;BME280;39608;55.630;37.864;2023-04-28T05:49:21;99016.47;;;15.31;56.25
53715;BME280;39608;55.630;37.864;2023-04-28T05:54:24;99043.28;;;15.74;55.48
53715;BME280;39608;55.630;37.864;2023-04-28T05:59:28;99039.31;;;15.97;54.93
53715;BME280;39608;55.630;37.864;2023-04-28T06:04:31;99025.75;;;16.00;55.05
53715;BME280;39608;55.630;37.864;2023-04-28T06:09:33;99027.81;;;16.03;55.20
53715;BME280;39608;55.630;37.864;2023-04-28T06:14:36;99021.31;;;16.08;55.51
53715;BME280;39608;55.630;37.864;2023-04-28T06:19:39;99057.13;;;16.97;54.04
53715;BME280;39608;55.630;37.864;2023-04-28T06:24:42;99055.31;;;17.45;52.76
53715;BME280;39608;55.630;37.864;2023-04-28T06:29:45;99024.69;;;17.27;52.74
53715;BME280;39608;55.630;37.864;2023-04-28T06:34:47;99058.53;;;17.35;52.84
53715;BME280;39608;55.630;37.864;2023-04-28T06:39:49;99027.19;;;17.04;53.17
53715;BME280;39608;55.630;37.864;2023-04-28T06:44:53;99064.56;;;16.96;53.58
53715;BME280;39608;55.630;37.864;2023-04-28T06:49:55;99065.44;;;16.72;54.65
53715;BME280;39608;55.630;37.864;2023-04-28T06:54:57;99058.97;;;16.52;55.68
53715;BME280;39608;55.630;37.864;2023-04-28T07:00:01;99050.22;;;16.21;56.32
53715;BME280;39608;55.630;37.864;2023-04-28T07:05:05;99032.25;;;15.96;56.62
53715;BME280;39608;55.630;37.864;2023-04-28T07:10:09;99022.13;;;15.84;57.19
53715;BME280;39608;55.630;37.864;2023-04-28T08:54:01;99068.41;;;17.07;56.59
53715;BME280;39608;55.630;37.864;2023-04-28T08:59:04;99063.13;;;16.74;57.55
53715;BME280;39608;55.630;37.864;2023-04-28T09:04:06;99068.44;;;16.54;59.07
53715;BME280;39608;55.630;37.864;2023-04-28T09:09:24;99073.88;;;16.67;58.59
53715;BME280;39608;55.630;37.864;2023-04-28T09:14:28;99066.97;;;16.32;60.28
53715;BME280;39608;55.630;37.864;2023-04-28T09:19:34;99070.06;;;16.31;60.67
53715;BME280;39608;55.630;37.864;2023-04-28T09:24:39;99066.63;;;16.34;60.28
53715;BME280;39608;55.630;37.864;2023-04-28T09:29:51;99065.38;;;16.31;60.64
53715;BME280;39608;55.630;37.864;2023-04-28T09:34:54;99063.03;;;16.17;61.28
53715;BME280;39608;55.630;37.864;2023-04-28T09:40:05;99071.66;;;16.32;61.40
53715;BME280;39608;55.630;37.864;2023-04-28T09:45:09;99075.78;;;16.13;61.46
53715;BME280;39608;55.630;37.864;2023-04-28T09:50:13;99071.69;;;16.07;61.76
53715;BME280;39608;55.630;37.864;2023-04-28T09:55:18;99062.34;;;16.08;61.39
53715;BME280;39608;55.630;37.864;2023-04-28T10:00:21;99078.53;;;16.01;62.68
53715;BME280;39608;55.630;37.864;2023-04-28T10:05:23;99083.84;;;15.72;63.76
53715;BME280;39608;55.630;37.864;2023-04-28T10:10:27;99092.66;;;15.57;64.34
53715;BME280;39608;55.630;37.864;2023-04-28T10:15:31;99090.19;;;15.52;63.69
53715;BME280;39608;55.630;37.864;2023-04-28T10:20:34;99089.81;;;15.41;64.05
53715;BME280;39608;55.630;37.864;2023-04-28T10:25:39;99083.69;;;15.56;63.88
53715;BME280;39608;55.630;37.864;2023-04-28T10:31:09;99085.56;;;16.14;61.88
53715;BME280;39608;55.630;37.864;2023-04-28T10:36:47;99089.19;;;16.55;61.23
53715;BME280;39608;55.630;37.864;2023-04-28T10:41:51;99080.28;;;16.58;61.93
53715;BME280;39608;55.630;37.864;2023-04-28T10:46:59;99085.16;;;16.77;61.21
53715;BME280;39608;55.630;37.864;2023-04-28T10:57:29;99092.09;;;16.87;61.10
53715;BME280;39608;55.630;37.864;2023-04-28T11:02:40;99089.91;;;16.93;60.12
53715;BME280;39608;55.630;37.864;2023-04-28T11:13:35;99091.03;;;16.27;62.78
53715;BME280;39608;55.630;37.864;2023-04-28T11:18:48;99085.69;;;16.18;63.30
53715;BME280;39608;55.630;37.864;2023-04-28T11:23:51;99096.25;;;15.70;65.58
53715;BME280;39608;55.630;37.864;2023-04-28T11:28:56;99099.63;;;15.54;65.49
53715;BME280;39608;55.630;37.864;2023-04-28T11:34:02;99086.81;;;15.34;66.11
53715;BME280;39608;55.630;37.864;2023-04-28T11:39:07;99088.16;;;15.28;65.84
53715;BME280;39608;55.630;37.864;2023-04-28T11:44:12;99094.47;;;15.40;65.45
53715;BME280;39608;55.630;37.864;2023-04-28T11:49:14;99095.50;;;15.48;65.96
53715;BME280;39608;55.630;37.864;2023-04-28T11:54:22;99093.28;;;15.63;66.66
53715;BME280;39608;55.630;37.864;2023-04-28T11:59:27;99090.88;;;15.73;66.14
53715;BME280;39608;55.630;37.864;2023-04-28T12:04:31;99083.50;;;15.74;67.43
53715;BME280;39608;55.630;37.864;2023-04-28T12:09:36;99082.84;;;16.14;66.11
53715;BME280;39608;55.630;37.864;2023-04-28T12:14:57;99075.38;;;16.64;65.88
53715;BME280;39608;55.630;37.864;2023-04-28T12:20:02;99068.31;;;16.51;65.27
53715;BME280;39608;55.630;37.864;2023-04-28T12:25:07;99067.31;;;16.43;64.39
53715;BME280;39608;55.630;37.864;2023-04-28T12:30:28;99070.94;;;16.59;64.44
53715;BME280;39608;55.630;37.864;2023-04-28T12:35:31;99069.81;;;16.48;63.71
53715;BME280;39608;55.630;37.864;2023-04-28T12:40:33;99069.78;;;16.60;63.78
53715;BME280;39608;55.630;37.864;2023-04-28T12:45:36;99070.56;;;16.73;63.95
53715;BME280;39608;55.630;37.864;2023-04-28T12:50:40;99064.94;;;16.82;63.33
53715;BME280;39608;55.630;37.864;2023-04-28T12:55:42;99068.34;;;16.91;61.67
53715;BME280;39608;55.630;37.864;2023-04-28T13:00:45;99071.28;;;16.99;62.20
53715;BME280;39608;55.630;37.864;2023-04-28T13:05:47;99061.72;;;16.92;62.62
53715;BME280;39608;55.630;37.864;2023-04-28T13:10:49;99059.69;;;16.77;61.96
53715;BME280;39608;55.630;37.864;2023-04-28T13:15:53;99061.78;;;16.68;62.52
53715;BME280;39608;55.630;37.864;2023-04-28T13:20:55;99065.91;;;16.49;62.29
53715;BME280;39608;55.630;37.864;2023-04-28T13:25:57;99059.13;;;16.31;63.44
53715;BME280;39608;55.630;37.864;2023-04-28T13:31:01;99065.28;;;16.03;64.28
53715;BME280;39608;55.630;37.864;2023-04-28T13:36:04;99066.88;;;15.79;64.99
53715;BME280;39608;55.630;37.864;2023-04-28T13:41:07;99076.84;;;15.50;65.49
53715;BME280;39608;55.630;37.864;2023-04-28T13:46:12;99091.41;;;15.42;65.12
53715;BME280;39608;55.630;37.864;2023-04-28T13:51:14;99090.72;;;15.12;66.05
53715;BME280;39608;55.630;37.864;2023-04-28T13:56:16;99081.22;;;14.97;66.09
53715;BME280;39608;55.630;37.864;2023-04-28T14:01:20;99088.88;;;14.82;66.06
53715;BME280;39608;55.630;37.864;2023-04-28T14:06:22;99094.94;;;14.67;66.07
53715;BME280;39608;55.630;37.864;2023-04-28T14:11:24;99109.53;;;14.71;66.10
53715;BME280;39608;55.630;37.864;2023-04-28T14:16:28;99112.53;;;14.78;66.93
53715;BME280;39608;55.630;37.864;2023-04-28T14:21:30;99103.88;;;14.76;65.77
53715;BME280;39608;55.630;37.864;2023-04-28T14:26:32;99116.34;;;14.65;66.08
53715;BME280;39608;55.630;37.864;2023-04-28T14:31:36;99118.97;;;14.44;66.50
53715;BME280;39608;55.630;37.864;2023-04-28T14:36:38;99114.84;;;14.37;65.89
53715;BME280;39608;55.630;37.864;2023-04-28T14:41:41;99108.41;;;14.12;66.13
53715;BME280;39608;55.630;37.864;2023-04-28T14:46:45;99125.44;;;14.09;66.40
53715;BME280;39608;55.630;37.864;2023-04-28T14:51:48;99120.31;;;13.99;65.54
53715;BME280;39608;55.630;37.864;2023-04-28T14:56:50;99116.25;;;13.75;66.14
53715;BME280;39608;55.630;37.864;2023-04-28T15:01:54;99111.28;;;13.77;65.47
53715;BME280;39608;55.630;37.864;2023-04-28T15:06:56;99118.22;;;13.66;65.44
53715;BME280;39608;55.630;37.864;2023-04-28T15:12:00;99132.66;;;13.58;65.68
53715;BME280;39608;55.630;37.864;2023-04-28T15:17:04;99129.94;;;13.40;65.84
53715;BME280;39608;55.630;37.864;2023-04-28T15:22:06;99133.81;;;13.39;66.02
53715;BME280;39608;55.630;37.864;2023-04-28T15:27:08;99142.91;;;13.34;65.44
53715;BME280;39608;55.630;37.864;2023-04-28T15:32:11;99136.53;;;13.22;65.03
53715;BME280;39608;55.630;37.864;2023-04-28T15:37:38;99144.88;;;13.16;64.42
53715;BME280;39608;55.630;37.864;2023-04-28T15:42:42;99172.72;;;12.96;64.77
53715;BME280;39608;55.630;37.864;2023-04-28T15:47:51;99173.19;;;12.98;64.49
53715;BME280;39608;55.630;37.864;2023-04-28T15:52:54;99168.72;;;12.84;64.46
53715;BME280;39608;55.630;37.864;2023-04-28T15:57:57;99166.59;;;12.81;64.19
53715;BME280;39608;55.630;37.864;2023-04-28T16:03:01;99161.34;;;12.85;64.32
53715;BME280;39608;55.630;37.864;2023-04-28T16:08:04;99159.72;;;12.75;64.46
53715;BME280;39608;55.630;37.864;2023-04-28T16:13:06;99150.78;;;12.75;64.63
53715;BME280;39608;55.630;37.864;2023-04-28T16:18:12;99157.00;;;12.75;64.42
53715;BME280;39608;55.630;37.864;2023-04-28T16:23:14;99172.50;;;12.66;63.88
53715;BME280;39608;55.630;37.864;2023-04-28T16:28:17;99172.16;;;12.50;64.08
53715;BME280;39608;55.630;37.864;2023-04-28T16:33:21;99161.59;;;12.48;63.83
53715;BME280;39608;55.630;37.864;2023-04-28T16:38:23;99158.81;;;12.31;64.22
53715;BME280;39608;55.630;37.864;2023-04-28T16:43:25;99145.38;;;12.26;63.54
53715;BME280;39608;55.630;37.864;2023-04-28T16:48:28;99168.53;;;12.14;64.09
53715;BME280;39608;55.630;37.864;2023-04-28T16:53:30;99178.91;;;12.12;63.70
53715;BME280;39608;55.630;37.864;2023-04-28T16:58:32;99183.56;;;12.21;63.52
53715;BME280;39608;55.630;37.864;2023-04-28T17:03:36;99179.34;;;12.06;63.57
53715;BME280;39608;55.630;37.864;2023-04-28T17:08:41;99190.84;;;12.03;63.60
53715;BME280;39608;55.630;37.864;2023-04-28T17:13:43;99196.13;;;11.99;63.49
53715;BME280;39608;55.630;37.864;2023-04-28T17:18:46;99214.44;;;11.93;63.45
53715;BME280;39608;55.630;37.864;2023-04-28T17:23:49;99209.75;;;11.85;63.44
53715;BME280;39608;55.630;37.864;2023-04-28T17:28:51;99214.53;;;11.79;63.66
53715;BME280;39608;55.630;37.864;2023-04-28T17:33:57;99212.91;;;11.78;63.56
53715;BME280;39608;55.630;37.864;2023-04-28T17:38:59;99221.28;;;11.68;63.60
53715;BME280;39608;55.630;37.864;2023-04-28T17:44:02;99219.50;;;11.63;62.78
53715;BME280;39608;55.630;37.864;2023-04-28T17:49:06;99230.13;;;11.51;63.31
53715;BME280;39608;55.630;37.864;2023-04-28T17:54:09;99225.34;;;11.34;63.37
53715;BME280;39608;55.630;37.864;2023-04-28T17:59:11;99223.88;;;11.28;63.49
53715;BME280;39608;55.630;37.864;2023-04-28T18:04:16;99213.66;;;11.25;63.39
53715;BME280;39608;55.630;37.864;2023-04-28T18:09:18;99220.38;;;11.13;63.61
53715;BME280;39608;55.630;37.864;2023-04-28T18:14:20;99228.97;;;11.07;63.67
53715;BME280;39608;55.630;37.864;2023-04-28T18:19:24;99217.84;;;10.94;64.08
53715;BME280;39608;55.630;37.864;2023-04-28T18:24:26;99223.66;;;10.88;64.16
53715;BME280;39608;55.630;37.864;2023-04-28T18:29:28;99232.72;;;10.83;63.78
53715;BME280;39608;55.630;37.864;2023-04-28T18:34:32;99243.97;;;10.76;64.38
53715;BME280;39608;55.630;37.864;2023-04-28T18:39:35;99226.09;;;10.61;64.62
53715;BME280;39608;55.630;37.864;2023-04-28T18:44:37;99231.44;;;10.53;64.41
53715;BME280;39608;55.630;37.864;2023-04-28T18:49:42;99232.72;;;10.55;65.02
53715;BME280;39608;55.630;37.864;2023-04-28T18:54:44;99235.75;;;10.54;64.21
53715;BME280;39608;55.630;37.864;2023-04-28T18:59:46;99236.53;;;10.40;64.84
53715;BME280;39608;55.630;37.864;2023-04-28T19:04:50;99220.44;;;10.30;63.98
53715;BME280;39608;55.630;37.864;2023-04-28T19:09:52;99227.25;;;10.14;64.79
53715;BME280;39608;55.630;37.864;2023-04-28T19:14:54;99225.63;;;10.13;64.54
53715;BME280;39608;55.630;37.864;2023-04-28T19:19:58;99235.88;;;10.02;65.07
53715;BME280;39608;55.630;37.864;2023-04-28T19:25:00;99249.88;;;9.90;64.54
53715;BME280;39608;55.630;37.864;2023-04-28T19:30:07;99240.31;;;9.79;64.89
53715;BME280;39608;55.630;37.864;2023-04-28T19:35:11;99241.63;;;9.81;65.45
53715;BME280;39608;55.630;37.864;2023-04-28T19:40:14;99229.34;;;9.70;65.34
53715;BME280;39608;55.630;37.864;2023-04-28T19:45:16;99238.50;;;9.55;64.83
53715;BME280;39608;55.630;37.864;2023-04-28T19:50:20;99226.53;;;9.42;64.89
53715;BME280;39608;55.630;37.864;2023-04-28T19:55:22;99227.66;;;9.22;65.06
53715;BME280;39608;55.630;37.864;2023-04-28T20:00:25;99242.97;;;9.07;65.83
53715;BME280;39608;55.630;37.864;2023-04-28T20:05:29;99245.25;;;9.00;65.84
53715;BME280;39608;55.630;37.864;2023-04-28T20:10:31;99256.75;;;8.87;65.61
53715;BME280;39608;55.630;37.864;2023-04-28T20:15:33;99247.91;;;8.81;65.44
53715;BME280;39608;55.630;37.864;2023-04-28T20:20:37;99240.19;;;8.75;66.22
53715;BME280;39608;55.630;37.864;2023-04-28T20:25:39;99230.28;;;8.65;66.08
53715;BME280;39608;55.630;37.864;2023-04-28T20:30:41;99239.53;;;8.59;66.60
53715;BME280;39608;55.630;37.864;2023-04-28T20:35:44;99234.38;;;8.62;66.32
53715;BME280;39608;55.630;37.864;2023-04-28T20:40:46;99234.13;;;8.59;66.24
53715;BME280;39608;55.630;37.864;2023-04-28T20:45:48;99227.09;;;8.57;65.94
53715;BME280;39608;55.630;37.864;2023-04-28T20:50:52;99232.34;;;8.49;66.33
53715;BME280;39608;55.630;37.864;2023-04-28T20:55:55;99225.13;;;8.39;66.29
53715;BME280;39608;55.630;37.864;2023-04-28T21:00:57;99238.72;;;8.34;66.44
53715;BME280;39608;55.630;37.864;2023-04-28T21:06:00;99234.69;;;8.31;66.54
53715;BME280;39608;55.630;37.864;2023-04-28T21:11:03;99215.56;;;8.22;66.55
53715;BME280;39608;55.630;37.864;2023-04-28T21:16:11;99208.34;;;8.18;66.77
53715;BME280;39608;55.630;37.864;2023-04-28T21:21:14;99227.06;;;8.09;66.99
53715;BME280;39608;55.630;37.864;2023-04-28T21:26:16;99204.19;;;8.01;67.10
53715;BME280;39608;55.630;37.864;2023-04-28T21:31:20;99233.38;;;7.99;66.42
53715;BME280;39608;55.630;37.864;2023-04-28T21:36:24;99213.44;;;7.95;66.30
53715;BME280;39608;55.630;37.864;2023-04-28T21:41:26;99214.75;;;7.98;66.80
53715;BME280;39608;55.630;37.864;2023-04-28T21:46:28;99211.34;;;7.87;66.54
53715;BME280;39608;55.630;37.864;2023-04-28T21:51:32;99248.25;;;7.97;66.64
53715;BME280;39608;55.630;37.864;2023-04-28T21:56:34;99230.25;;;7.87;66.58
53715;BME280;39608;55.630;37.864;2023-04-28T22:01:36;99215.41;;;7.84;66.59
53715;BME280;39608;55.630;37.864;2023-04-28T22:06:39;99214.38;;;7.80;66.33
53715;BME280;39608;55.630;37.864;2023-04-28T22:11:42;99194.50;;;7.71;66.43
53715;BME280;39608;55.630;37.864;2023-04-28T22:16:44;99191.53;;;7.67;66.42
53715;BME280;39608;55.630;37.864;2023-04-28T22:21:48;99186.44;;;7.66;67.00
53715;BME280;39608;55.630;37.864;2023-04-28T22:26:50;99174.13;;;7.54;66.83
53715;BME280;39608;55.630;37.864;2023-04-28T22:31:52;99188.13;;;7.57;67.19
53715;BME280;39608;55.630;37.864;2023-04-28T22:36:55;99183.75;;;7.61;67.01
53715;BME280;39608;55.630;37.864;2023-04-28T22:41:57;99168.72;;;7.54;66.71
53715;BME280;39608;55.630;37.864;2023-04-28T22:47:00;99194.66;;;7.50;66.90
53715;BME280;39608;55.630;37.864;2023-04-28T22:52:04;99190.63;;;7.48;67.18
53715;BME280;39608;55.630;37.864;2023-04-28T22:57:06;99185.59;;;7.36;66.62
53715;BME280;39608;55.630;37.864;2023-04-28T23:02:08;99158.75;;;7.21;66.77
53715;BME280;39608;55.630;37.864;2023-04-28T23:07:14;99182.75;;;7.17;66.94
53715;BME280;39608;55.630;37.864;2023-04-28T23:12:16;99191.72;;;7.07;67.12
53715;BME280;39608;55.630;37.864;2023-04-28T23:17:18;99185.56;;;7.01;67.29
53715;BME280;39608;55.630;37.864;2023-04-28T23:22:21;99193.66;;;7.01;67.36
53715;BME280;39608;55.630;37.864;2023-04-28T23:27:23;99210.09;;;7.00;67.68
53715;BME280;39608;55.630;37.864;2023-04-28T23:32:25;99201.03;;;6.85;67.29
53715;BME280;39608;55.630;37.864;2023-04-28T23:37:29;99230.69;;;6.80;67.73
53715;BME280;39608;55.630;37.864;2023-04-28T23:42:31;99226.66;;;6.78;67.56
53715;BME280;39608;55.630;37.864;2023-04-28T23:47:33;99210.56;;;6.62;67.84
53715;BME280;39608;55.630;37.864;2023-04-28T23:52:36;99212.97;;;6.64;68.03
53715;BME280;39608;55.630;37.864;2023-04-28T23:57:39;99214.59;;;6.55;67.80
